createdAt,value
2023-03-30T00:00:17.226Z,18.10
2023-03-30T00:04:19.120Z,16.33
2023-03-30T00:08:20.892Z,15.87
2023-03-30T00:12:23.971Z,16.00
2023-03-30T00:16:25.343Z,16.93
2023-03-30T00:20:26.294Z,17.97
2023-03-30T00:24:29.135Z,17.60
2023-03-30T00:28:34.163Z,16.23
2023-03-30T00:32:34.892Z,16.60
2023-03-30T00:36:37.368Z,18.50
2023-03-30T00:40:38.948Z,16.10
2023-03-30T00:45:25.390Z,18.80
2023-03-30T00:49:26.254Z,21.53
2023-03-30T00:53:32.990Z,22.00
2023-03-30T00:57:34.869Z,18.80
2023-03-30T01:01:39.512Z,21.90
2023-03-30T01:05:45.180Z,18.40
2023-03-30T01:09:47.453Z,19.53
2023-03-30T01:13:53.261Z,16.63
2023-03-30T01:18:20.077Z,18.87
2023-03-30T01:23:27.699Z,20.70
2023-03-30T01:28:25.671Z,17.37
2023-03-30T01:32:57.902Z,16.73
2023-03-30T01:37:41.567Z,19.70
2023-03-30T01:41:58.591Z,18.37
2023-03-30T01:46:07.651Z,17.93
2023-03-30T01:50:16.640Z,20.07
2023-03-30T01:54:26.024Z,21.37
2023-03-30T01:58:36.383Z,18.50
2023-03-30T02:02:38.516Z,19.03
2023-03-30T02:06:46.311Z,32.70
2023-03-30T02:10:50.638Z,24.27
2023-03-30T02:14:55.696Z,18.97
2023-03-30T02:18:58.099Z,19.27
2023-03-30T02:22:58.841Z,19.47
2023-03-30T02:27:03.846Z,20.17
2023-03-30T02:31:16.131Z,18.60
2023-03-30T02:35:46.099Z,22.27
2023-03-30T02:40:12.843Z,21.83
2023-03-30T02:44:31.839Z,21.83
2023-03-30T02:48:47.820Z,19.43
2023-03-30T02:52:59.611Z,23.87
2023-03-30T02:57:14.438Z,24.60
2023-03-30T03:01:23.224Z,24.10
2023-03-30T03:05:34.164Z,23.23
2023-03-30T03:09:44.497Z,22.33
2023-03-30T03:13:46.073Z,26.60
2023-03-30T03:17:47.226Z,26.10
2023-03-30T03:21:52.001Z,28.93
2023-03-30T03:25:52.822Z,25.03
2023-03-30T03:29:54.047Z,26.93
2023-03-30T03:33:54.628Z,25.80
2023-03-30T03:38:04.274Z,24.80
2023-03-30T03:42:05.491Z,25.37
2023-03-30T03:46:07.645Z,30.47
2023-03-30T03:50:10.417Z,29.17
2023-03-30T03:54:13.829Z,27.23
2023-03-30T03:58:19.907Z,28.00
2023-03-30T04:02:22.522Z,25.93
2023-03-30T04:06:24.333Z,29.10
2023-03-30T04:10:28.195Z,32.13
2023-03-30T04:14:48.883Z,25.30
2023-03-30T04:19:04.720Z,24.77
2023-03-30T04:23:22.299Z,33.47
2023-03-30T04:27:46.115Z,31.80
2023-03-30T04:32:20.963Z,29.07
2023-03-30T04:36:38.605Z,25.27
2023-03-30T04:40:58.291Z,25.23
2023-03-30T04:45:26.140Z,27.00
2023-03-30T04:50:02.879Z,27.47
2023-03-30T04:54:24.546Z,32.63
2023-03-30T04:58:45.180Z,26.73
2023-03-30T05:03:14.940Z,23.37
2023-03-30T05:07:38.662Z,26.03
2023-03-30T05:11:52.250Z,21.93
2023-03-30T05:16:09.796Z,24.23
2023-03-30T05:20:39.354Z,26.07
2023-03-30T05:24:47.633Z,24.93
2023-03-30T05:29:07.539Z,26.07
2023-03-30T05:33:27.373Z,25.63
2023-03-30T05:37:55.748Z,23.47
2023-03-30T05:42:15.240Z,25.37
2023-03-30T05:46:25.074Z,21.57
2023-03-30T05:50:47.005Z,25.93
2023-03-30T05:55:06.950Z,22.10
2023-03-30T05:59:26.446Z,25.70
2023-03-30T06:03:39.315Z,25.20
2023-03-30T06:07:41.972Z,24.07
2023-03-30T06:11:45.187Z,22.73
2023-03-30T06:15:52.810Z,21.13
2023-03-30T06:19:56.995Z,30.70
2023-03-30T06:23:58.099Z,31.87
2023-03-30T06:28:04.638Z,28.90
2023-03-30T06:32:06.528Z,27.17
2023-03-30T06:36:44.786Z,26.00
2023-03-30T06:40:49.162Z,27.90
2023-03-30T06:44:54.052Z,32.10
2023-03-30T06:48:55.335Z,37.80
2023-03-30T06:53:14.807Z,35.60
2023-03-30T06:57:17.633Z,32.33
2023-03-30T07:01:20.983Z,62.67
2023-03-30T07:05:52.593Z,26.43
2023-03-30T07:10:01.434Z,31.77
2023-03-30T07:14:04.859Z,29.77
2023-03-30T07:18:10.433Z,30.67
2023-03-30T07:22:11.420Z,21.97
2023-03-30T07:26:11.918Z,24.60
2023-03-30T07:30:24.198Z,33.40
2023-03-30T07:34:36.471Z,29.97
2023-03-30T07:38:37.491Z,28.00
2023-03-30T07:42:38.182Z,27.80
2023-03-30T07:46:39.105Z,25.17
2023-03-30T07:50:44.911Z,27.33
2023-03-30T07:54:46.953Z,22.50
2023-03-30T07:58:52.644Z,25.23
2023-03-30T08:02:58.123Z,24.57
2023-03-30T08:07:02.109Z,26.13
2023-03-30T08:11:03.772Z,28.37
2023-03-30T08:15:04.785Z,24.10
2023-03-30T08:19:05.565Z,26.57
2023-03-30T08:23:10.757Z,22.43
2023-03-30T08:27:11.233Z,21.20
2023-03-30T08:31:13.424Z,26.67
2023-03-30T08:35:14.481Z,20.97
2023-03-30T08:39:18.620Z,20.70
2023-03-30T08:43:43.935Z,24.77
2023-03-30T08:47:53.296Z,25.23
2023-03-30T08:51:58.020Z,31.37
2023-03-30T08:56:08.009Z,30.13
2023-03-30T09:00:27.725Z,25.57
2023-03-30T09:04:57.089Z,22.07
2023-03-30T09:08:58.106Z,19.93
2023-03-30T09:13:04.458Z,22.57
2023-03-30T09:17:15.130Z,18.53
2023-03-30T09:21:17.431Z,22.43
2023-03-30T09:25:21.892Z,25.03
2023-03-30T09:29:33.865Z,29.27
2023-03-30T09:33:47.367Z,42.70
2023-03-30T09:37:52.220Z,30.13
2023-03-30T09:42:12.183Z,32.63
2023-03-30T09:46:18.416Z,22.50
2023-03-30T09:50:24.418Z,27.17
2023-03-30T09:54:27.669Z,24.97
2023-03-30T09:58:34.291Z,17.30
2023-03-30T10:02:38.335Z,24.50
2023-03-30T10:06:47.367Z,29.27
2023-03-30T10:10:57.163Z,26.03
2023-03-30T10:15:00.224Z,24.13
2023-03-30T10:19:19.601Z,21.43
2023-03-30T10:23:25.183Z,20.37
2023-03-30T10:27:37.976Z,17.90
2023-03-30T10:31:46.523Z,15.10
2023-03-30T10:35:56.651Z,22.23
2023-03-30T10:39:58.167Z,26.57
2023-03-30T10:43:58.855Z,19.43
2023-03-30T10:48:32.834Z,12.50
2023-03-30T10:52:56.271Z,16.67
2023-03-30T10:57:13.082Z,18.58
2023-03-30T11:01:28.214Z,26.65
2023-03-30T11:05:36.081Z,19.95
2023-03-30T11:09:44.747Z,20.75
2023-03-30T11:13:50.579Z,22.85
2023-03-30T11:18:01.235Z,10.93
2023-03-30T11:22:12.139Z,13.38
2023-03-30T11:26:22.544Z,12.43
2023-03-30T11:30:29.963Z,10.00
2023-03-30T11:34:40.187Z,12.90
2023-03-30T11:38:52.560Z,17.42
2023-03-30T11:42:55.664Z,10.90
2023-03-30T11:47:10.296Z,11.27
2023-03-30T11:51:31.385Z,11.35
2023-03-30T11:55:54.108Z,10.20
2023-03-30T12:00:12.826Z,12.18
2023-03-30T12:04:19.814Z,10.55
2023-03-30T12:08:45.798Z,11.30
2023-03-30T12:12:49.661Z,9.95
2023-03-30T12:17:00.714Z,8.95
2023-03-30T12:21:23.285Z,7.60
2023-03-30T12:25:38.832Z,10.10
2023-03-30T12:34:11.294Z,7.63
2023-03-30T12:38:11.757Z,8.30
2023-03-30T12:42:26.708Z,10.18
2023-03-30T12:46:42.242Z,8.52
2023-03-30T12:50:59.737Z,10.18
2023-03-30T12:55:28.176Z,5.18
2023-03-30T13:00:02.577Z,6.93
2023-03-30T13:04:10.980Z,7.38
2023-03-30T13:08:29.432Z,7.07
2023-03-30T13:12:41.853Z,5.97
2023-03-30T13:17:14.743Z,13.63
2023-03-30T13:21:26.247Z,7.07
2023-03-30T13:25:42.476Z,6.03
2023-03-30T13:29:44.349Z,7.10
2023-03-30T13:33:52.981Z,8.95
2023-03-30T13:38:33.433Z,7.65
2023-03-30T13:43:02.232Z,6.10
2023-03-30T13:47:28.262Z,8.02
2023-03-30T13:51:32.625Z,5.88
2023-03-30T13:55:36.773Z,7.38
2023-03-30T13:59:46.314Z,9.52
2023-03-30T14:03:51.469Z,7.90
2023-03-30T14:07:55.983Z,5.60
2023-03-30T14:11:59.085Z,4.15
2023-03-30T14:16:04.019Z,7.32
2023-03-30T14:20:21.268Z,4.13
2023-03-30T14:24:31.710Z,7.53
2023-03-30T14:28:39.977Z,9.35
2023-03-30T14:32:43.594Z,9.43
2023-03-30T14:36:48.463Z,6.82
2023-03-30T14:40:54.500Z,4.85
2023-03-30T14:44:59.256Z,5.90
2023-03-30T14:49:04.566Z,6.80
2023-03-30T14:53:06.630Z,6.18
2023-03-30T14:57:15.443Z,6.28
2023-03-30T15:01:23.650Z,5.63
2023-03-30T15:05:32.194Z,5.78
2023-03-30T15:09:42.082Z,6.20
2023-03-30T15:13:54.365Z,9.05
2023-03-30T15:17:59.606Z,6.20
2023-03-30T15:22:08.093Z,6.25
2023-03-30T15:26:14.726Z,7.20
2023-03-30T15:30:31.574Z,6.78
2023-03-30T15:34:32.488Z,5.55
2023-03-30T15:38:46.493Z,7.60
2023-03-30T15:42:48.326Z,9.45
2023-03-30T15:46:54.153Z,9.80
2023-03-30T15:51:04.079Z,6.68
2023-03-30T15:55:18.103Z,7.57
2023-03-30T15:59:24.331Z,6.60
2023-03-30T16:03:42.263Z,5.18
2023-03-30T16:07:43.535Z,7.47
2023-03-30T16:11:49.071Z,5.10
2023-03-30T16:15:50.365Z,9.20
2023-03-30T16:19:52.100Z,4.95
2023-03-30T16:23:53.007Z,6.10
2023-03-30T16:27:59.108Z,4.88
2023-03-30T16:32:04.158Z,4.72
2023-03-30T16:36:06.609Z,5.25
2023-03-30T16:40:25.184Z,4.97
2023-03-30T16:44:29.998Z,4.25
2023-03-30T16:48:30.887Z,10.90
2023-03-30T16:52:34.129Z,5.47
2023-03-30T16:56:35.193Z,3.78
2023-03-30T17:01:01.409Z,10.68
2023-03-30T17:05:02.063Z,11.50
2023-03-30T17:09:04.231Z,4.90
2023-03-30T17:13:04.868Z,6.72
2023-03-30T17:17:08.040Z,4.28
2023-03-30T17:21:16.722Z,4.60
2023-03-30T17:25:20.866Z,3.58
2023-03-30T17:29:21.797Z,4.10
2023-03-30T17:33:26.486Z,3.13
2023-03-30T17:37:29.031Z,5.50
2023-03-30T17:41:29.836Z,12.13
2023-03-30T17:45:33.777Z,8.27
2023-03-30T17:49:38.254Z,6.67
2023-03-30T17:53:39.555Z,5.03
2023-03-30T17:57:40.133Z,5.07
2023-03-30T18:01:41.516Z,4.23
2023-03-30T18:05:48.137Z,7.50
2023-03-30T18:09:50.681Z,5.80
2023-03-30T18:13:53.914Z,4.53
2023-03-30T18:17:55.654Z,3.07
2023-03-30T18:22:00.104Z,4.80
2023-03-30T18:26:01.827Z,4.10
2023-03-30T18:30:02.465Z,3.50
2023-03-30T18:34:07.798Z,6.03
2023-03-30T18:38:13.379Z,6.33
2023-03-30T18:42:16.476Z,8.97
2023-03-30T18:46:28.695Z,8.70
2023-03-30T18:50:38.247Z,7.17
2023-03-30T18:54:43.868Z,7.37
2023-03-30T18:58:44.917Z,5.70
2023-03-30T19:02:45.965Z,7.77
2023-03-30T19:06:46.778Z,6.13
2023-03-30T19:10:55.220Z,8.93
2023-03-30T19:14:58.687Z,6.13
2023-03-30T19:19:00.319Z,6.07
2023-03-30T19:23:02.124Z,6.57
2023-03-30T19:27:08.094Z,7.13
2023-03-30T19:31:13.562Z,13.70
2023-03-30T19:35:15.193Z,11.53
2023-03-30T19:39:16.203Z,10.90
2023-03-30T19:43:20.491Z,11.83
2023-03-30T19:47:21.619Z,12.67
2023-03-30T19:51:24.786Z,9.20
2023-03-30T19:55:28.887Z,12.10
2023-03-30T19:59:34.550Z,10.80
2023-03-30T20:03:40.949Z,9.27
2023-03-30T20:07:47.476Z,9.37
2023-03-30T20:11:51.768Z,11.43
2023-03-30T20:15:58.172Z,6.40
2023-03-30T20:20:03.089Z,10.17
2023-03-30T20:24:05.044Z,11.93
2023-03-30T20:28:08.026Z,8.63
2023-03-30T20:32:13.339Z,8.50
2023-03-30T20:36:18.283Z,4.87
2023-03-30T20:40:21.816Z,10.33
2023-03-30T20:44:30.322Z,9.77
2023-03-30T20:48:40.515Z,12.33
2023-03-30T20:52:41.350Z,10.87
2023-03-30T20:56:42.405Z,6.63
2023-03-30T21:00:43.375Z,10.57
2023-03-30T21:04:46.868Z,7.23
2023-03-30T21:08:50.638Z,7.43
2023-03-30T21:12:51.586Z,11.93
2023-03-30T21:16:52.181Z,9.67
2023-03-30T21:20:57.418Z,7.07
2023-03-30T21:24:58.042Z,6.77
2023-03-30T21:28:59.620Z,9.50
2023-03-30T21:33:01.549Z,6.77
2023-03-30T21:37:04.898Z,7.97
2023-03-30T21:41:09.259Z,6.07
2023-03-30T21:45:14.070Z,7.13
2023-03-30T21:49:14.994Z,6.87
2023-03-30T21:53:18.375Z,6.03
2023-03-30T21:57:20.258Z,7.97
2023-03-30T22:01:27.526Z,4.33
2023-03-30T22:05:28.211Z,5.77
2023-03-30T22:09:32.091Z,4.80
2023-03-30T22:13:36.954Z,6.80
2023-03-30T22:17:41.971Z,3.90
2023-03-30T22:21:42.668Z,4.77
2023-03-30T22:25:46.769Z,4.87
2023-03-30T22:29:51.496Z,3.77
2023-03-30T22:33:52.491Z,4.27
2023-03-30T22:37:53.823Z,4.90
2023-03-30T22:41:57.358Z,4.27
2023-03-30T22:45:58.232Z,4.83
2023-03-30T22:49:58.743Z,6.30
2023-03-30T22:54:05.479Z,6.60
2023-03-30T22:58:11.664Z,3.20
2023-03-30T23:02:14.910Z,7.10
2023-03-30T23:06:19.293Z,6.03
2023-03-30T23:10:25.652Z,7.23
2023-03-30T23:14:29.552Z,5.57
2023-03-30T23:18:29.898Z,4.33
2023-03-30T23:22:32.256Z,3.90
2023-03-30T23:26:34.905Z,5.30
2023-03-30T23:30:42.793Z,4.20
2023-03-30T23:34:46.806Z,4.40
2023-03-30T23:38:47.434Z,4.57
2023-03-30T23:42:47.872Z,7.27
2023-03-30T23:46:51.318Z,6.07
2023-03-30T23:50:51.988Z,6.47
2023-03-30T23:54:53.991Z,7.17
2023-03-30T23:58:58.523Z,10.50
